Oak Grove, Texas
Current Conditions -  °F | °C
As of 3:15 PM on Thursday 23 Oct 2014 (Local Time) from KJDD Reporting Station
Few Clouds Few Clouds  
Wind Chill: 75°   Ceiling: Unl
Heat Index: 75°   Visibility: 10mi
Dew Point: 52°   Wind: 3mph
Humidity: 44%   Direction: 280°W
Pressure: 30.11"   Gusts: NA
Location:  32.7982°N, 95.4046°W
Report Text: KJDD 232015Z AUTO 28003KT 10SM FEW080 24/11 A3011 RMK AO2
Loading
Personal Weather Stations






























Interactive Weather Map
Tropical Storm Tracking
New forecast layout! Learn more

10-Day Weather Forecast

Advertisements
Track Severe Weather on mobile